sensor_id;sensor_type;location;lat;lon;timestamp;P1;durP1;ratioP1;P2;durP2;ratioP2
15002;SDS011;7597;53.590;10.020;2022-07-09T00:00:44;16.02;;;6.93;;
15002;SDS011;7597;53.590;10.020;2022-07-09T00:03:10;13.10;;;6.70;;
15002;SDS011;7597;53.590;10.020;2022-07-09T00:05:37;14.32;;;7.70;;
15002;SDS011;7597;53.590;10.020;2022-07-09T00:08:04;10.07;;;5.57;;
15002;SDS011;7597;53.590;10.020;2022-07-09T00:10:31;16.92;;;6.55;;
15002;SDS011;7597;53.590;10.020;2022-07-09T00:12:58;8.93;;;4.75;;
15002;SDS011;7597;53.590;10.020;2022-07-09T00:15:25;6.97;;;4.55;;
15002;SDS011;7597;53.590;10.020;2022-07-09T00:17:52;11.25;;;4.93;;
15002;SDS011;7597;53.590;10.020;2022-07-09T00:20:19;8.52;;;4.53;;
15002;SDS011;7597;53.590;10.020;2022-07-09T00:22:45;11.07;;;4.37;;
15002;SDS011;7597;53.590;10.020;2022-07-09T00:25:12;14.07;;;4.68;;
15002;SDS011;7597;53.590;10.020;2022-07-09T00:27:39;11.32;;;4.85;;
15002;SDS011;7597;53.590;10.020;2022-07-09T00:30:06;12.00;;;6.70;;
15002;SDS011;7597;53.590;10.020;2022-07-09T00:32:33;15.23;;;4.97;;
15002;SDS011;7597;53.590;10.020;2022-07-09T00:35:00;10.85;;;5.25;;
15002;SDS011;7597;53.590;10.020;2022-07-09T00:37:26;10.68;;;5.55;;
15002;SDS011;7597;53.590;10.020;2022-07-09T00:39:53;10.02;;;5.32;;
15002;SDS011;7597;53.590;10.020;2022-07-09T00:42:20;13.60;;;5.00;;
15002;SDS011;7597;53.590;10.020;2022-07-09T00:44:46;12.15;;;4.93;;
15002;SDS011;7597;53.590;10.020;2022-07-09T00:47:13;9.60;;;4.85;;
15002;SDS011;7597;53.590;10.020;2022-07-09T00:49:41;12.00;;;5.62;;
15002;SDS011;7597;53.590;10.020;2022-07-09T00:52:11;10.20;;;4.93;;
15002;SDS011;7597;53.590;10.020;2022-07-09T00:54:34;9.15;;;5.00;;
15002;SDS011;7597;53.590;10.020;2022-07-09T00:57:02;10.50;;;5.07;;
15002;SDS011;7597;53.590;10.020;2022-07-09T00:59:28;13.02;;;5.10;;
15002;SDS011;7597;53.590;10.020;2022-07-09T01:01:55;12.55;;;5.60;;
15002;SDS011;7597;53.590;10.020;2022-07-09T01:04:22;10.88;;;5.25;;
15002;SDS011;7597;53.590;10.020;2022-07-09T01:06:49;11.55;;;5.10;;
15002;SDS011;7597;53.590;10.020;2022-07-09T01:09:15;9.68;;;4.80;;
15002;SDS011;7597;53.590;10.020;2022-07-09T01:11:42;12.25;;;6.07;;
15002;SDS011;7597;53.590;10.020;2022-07-09T01:14:09;10.60;;;5.45;;
15002;SDS011;7597;53.590;10.020;2022-07-09T01:16:36;13.52;;;5.35;;
15002;SDS011;7597;53.590;10.020;2022-07-09T01:19:03;14.95;;;6.68;;
15002;SDS011;7597;53.590;10.020;2022-07-09T01:21:29;10.65;;;5.60;;
15002;SDS011;7597;53.590;10.020;2022-07-09T01:23:56;12.18;;;4.97;;
15002;SDS011;7597;53.590;10.020;2022-07-09T01:26:23;10.50;;;5.18;;
15002;SDS011;7597;53.590;10.020;2022-07-09T01:28:49;10.23;;;5.53;;
15002;SDS011;7597;53.590;10.020;2022-07-09T01:31:16;10.82;;;5.00;;
15002;SDS011;7597;53.590;10.020;2022-07-09T01:33:43;11.82;;;5.53;;
15002;SDS011;7597;53.590;10.020;2022-07-09T01:36:10;14.13;;;5.65;;
15002;SDS011;7597;53.590;10.020;2022-07-09T01:38:37;11.98;;;5.60;;
15002;SDS011;7597;53.590;10.020;2022-07-09T01:41:04;17.67;;;6.15;;
15002;SDS011;7597;53.590;10.020;2022-07-09T01:43:31;12.63;;;5.55;;
15002;SDS011;7597;53.590;10.020;2022-07-09T01:45:58;10.90;;;4.87;;
15002;SDS011;7597;53.590;10.020;2022-07-09T01:48:25;12.02;;;5.50;;
15002;SDS011;7597;53.590;10.020;2022-07-09T01:50:51;13.27;;;5.35;;
15002;SDS011;7597;53.590;10.020;2022-07-09T01:53:18;13.90;;;5.43;;
15002;SDS011;7597;53.590;10.020;2022-07-09T01:55:45;15.00;;;6.10;;
15002;SDS011;7597;53.590;10.020;2022-07-09T01:58:11;12.10;;;6.03;;
15002;SDS011;7597;53.590;10.020;2022-07-09T02:00:38;13.88;;;5.45;;
15002;SDS011;7597;53.590;10.020;2022-07-09T02:03:05;12.93;;;5.68;;
15002;SDS011;7597;53.590;10.020;2022-07-09T02:05:32;11.65;;;5.78;;
15002;SDS011;7597;53.590;10.020;2022-07-09T02:07:58;12.82;;;5.80;;
15002;SDS011;7597;53.590;10.020;2022-07-09T02:10:25;11.60;;;5.15;;
15002;SDS011;7597;53.590;10.020;2022-07-09T02:12:52;10.20;;;5.37;;
15002;SDS011;7597;53.590;10.020;2022-07-09T02:15:18;9.30;;;5.12;;
15002;SDS011;7597;53.590;10.020;2022-07-09T02:17:45;16.67;;;6.37;;
15002;SDS011;7597;53.590;10.020;2022-07-09T02:20:12;11.90;;;4.90;;
15002;SDS011;7597;53.590;10.020;2022-07-09T02:22:38;13.05;;;5.00;;
15002;SDS011;7597;53.590;10.020;2022-07-09T02:25:05;10.15;;;5.12;;
15002;SDS011;7597;53.590;10.020;2022-07-09T02:27:32;14.43;;;5.53;;
15002;SDS011;7597;53.590;10.020;2022-07-09T02:29:59;13.00;;;5.68;;
15002;SDS011;7597;53.590;10.020;2022-07-09T02:32:26;11.23;;;5.18;;
15002;SDS011;7597;53.590;10.020;2022-07-09T02:34:52;15.35;;;6.00;;
15002;SDS011;7597;53.590;10.020;2022-07-09T02:37:19;15.57;;;5.25;;
15002;SDS011;7597;53.590;10.020;2022-07-09T02:39:46;11.70;;;5.45;;
15002;SDS011;7597;53.590;10.020;2022-07-09T02:42:12;10.30;;;5.40;;
15002;SDS011;7597;53.590;10.020;2022-07-09T02:44:39;11.27;;;5.75;;
15002;SDS011;7597;53.590;10.020;2022-07-09T02:47:06;12.60;;;5.95;;
15002;SDS011;7597;53.590;10.020;2022-07-09T02:49:33;10.45;;;4.78;;
15002;SDS011;7597;53.590;10.020;2022-07-09T02:52:00;9.95;;;4.55;;
15002;SDS011;7597;53.590;10.020;2022-07-09T02:54:27;11.95;;;5.60;;
15002;SDS011;7597;53.590;10.020;2022-07-09T02:56:54;14.23;;;5.37;;
15002;SDS011;7597;53.590;10.020;2022-07-09T02:59:20;12.05;;;5.30;;
15002;SDS011;7597;53.590;10.020;2022-07-09T03:01:47;10.60;;;5.22;;
15002;SDS011;7597;53.590;10.020;2022-07-09T03:04:14;9.38;;;4.85;;
15002;SDS011;7597;53.590;10.020;2022-07-09T03:06:40;13.43;;;5.32;;
15002;SDS011;7597;53.590;10.020;2022-07-09T03:09:08;14.25;;;5.12;;
15002;SDS011;7597;53.590;10.020;2022-07-09T03:11:34;13.40;;;4.80;;
15002;SDS011;7597;53.590;10.020;2022-07-09T03:14:01;13.18;;;5.28;;
15002;SDS011;7597;53.590;10.020;2022-07-09T03:16:28;10.45;;;4.62;;
15002;SDS011;7597;53.590;10.020;2022-07-09T03:18:54;13.90;;;4.60;;
15002;SDS011;7597;53.590;10.020;2022-07-09T03:21:21;9.23;;;4.90;;
15002;SDS011;7597;53.590;10.020;2022-07-09T03:23:48;11.57;;;4.97;;
15002;SDS011;7597;53.590;10.020;2022-07-09T03:26:14;9.43;;;5.05;;
15002;SDS011;7597;53.590;10.020;2022-07-09T03:28:41;11.80;;;6.22;;
15002;SDS011;7597;53.590;10.020;2022-07-09T03:31:08;11.48;;;5.68;;
15002;SDS011;7597;53.590;10.020;2022-07-09T03:33:34;11.70;;;5.55;;
15002;SDS011;7597;53.590;10.020;2022-07-09T03:36:01;13.70;;;6.75;;
15002;SDS011;7597;53.590;10.020;2022-07-09T03:38:28;13.05;;;5.20;;
15002;SDS011;7597;53.590;10.020;2022-07-09T03:40:54;14.07;;;5.30;;
15002;SDS011;7597;53.590;10.020;2022-07-09T03:43:21;10.65;;;5.25;;
15002;SDS011;7597;53.590;10.020;2022-07-09T03:45:48;11.18;;;5.47;;
15002;SDS011;7597;53.590;10.020;2022-07-09T03:48:14;9.63;;;5.87;;
15002;SDS011;7597;53.590;10.020;2022-07-09T03:50:41;11.73;;;5.68;;
15002;SDS011;7597;53.590;10.020;2022-07-09T03:53:08;11.48;;;5.60;;
15002;SDS011;7597;53.590;10.020;2022-07-09T03:55:34;9.77;;;5.72;;
15002;SDS011;7597;53.590;10.020;2022-07-09T03:58:01;13.85;;;7.87;;
15002;SDS011;7597;53.590;10.020;2022-07-09T04:00:28;13.80;;;5.90;;
15002;SDS011;7597;53.590;10.020;2022-07-09T04:02:54;11.98;;;6.03;;
15002;SDS011;7597;53.590;10.020;2022-07-09T04:05:21;14.15;;;6.37;;
15002;SDS011;7597;53.590;10.020;2022-07-09T04:07:48;11.82;;;6.87;;
15002;SDS011;7597;53.590;10.020;2022-07-09T04:10:14;11.02;;;7.10;;
15002;SDS011;7597;53.590;10.020;2022-07-09T04:12:41;10.95;;;6.12;;
15002;SDS011;7597;53.590;10.020;2022-07-09T04:15:08;11.07;;;6.22;;
15002;SDS011;7597;53.590;10.020;2022-07-09T04:17:35;10.25;;;6.55;;
15002;SDS011;7597;53.590;10.020;2022-07-09T04:20:02;10.50;;;6.30;;
15002;SDS011;7597;53.590;10.020;2022-07-09T04:22:29;13.68;;;6.20;;
15002;SDS011;7597;53.590;10.020;2022-07-09T04:24:56;13.15;;;6.62;;
15002;SDS011;7597;53.590;10.020;2022-07-09T04:27:23;12.85;;;6.55;;
15002;SDS011;7597;53.590;10.020;2022-07-09T04:29:49;14.27;;;6.60;;
15002;SDS011;7597;53.590;10.020;2022-07-09T04:32:16;12.80;;;6.05;;
15002;SDS011;7597;53.590;10.020;2022-07-09T04:34:42;10.93;;;6.22;;
15002;SDS011;7597;53.590;10.020;2022-07-09T04:37:09;12.90;;;6.22;;
15002;SDS011;7597;53.590;10.020;2022-07-09T04:39:36;18.67;;;11.45;;
15002;SDS011;7597;53.590;10.020;2022-07-09T04:42:03;9.43;;;5.75;;
15002;SDS011;7597;53.590;10.020;2022-07-09T04:44:30;14.70;;;9.85;;
15002;SDS011;7597;53.590;10.020;2022-07-09T04:46:56;12.90;;;5.68;;
15002;SDS011;7597;53.590;10.020;2022-07-09T04:49:23;9.35;;;5.80;;
15002;SDS011;7597;53.590;10.020;2022-07-09T04:51:50;10.00;;;5.47;;
15002;SDS011;7597;53.590;10.020;2022-07-09T04:54:16;9.15;;;5.20;;
15002;SDS011;7597;53.590;10.020;2022-07-09T04:56:43;9.65;;;5.32;;
15002;SDS011;7597;53.590;10.020;2022-07-09T04:59:09;8.38;;;4.70;;
15002;SDS011;7597;53.590;10.020;2022-07-09T05:01:36;13.52;;;8.75;;
15002;SDS011;7597;53.590;10.020;2022-07-09T05:04:03;13.70;;;5.45;;
15002;SDS011;7597;53.590;10.020;2022-07-09T05:06:30;16.75;;;8.93;;
15002;SDS011;7597;53.590;10.020;2022-07-09T05:08:57;12.68;;;7.12;;
15002;SDS011;7597;53.590;10.020;2022-07-09T05:11:24;7.70;;;4.60;;
15002;SDS011;7597;53.590;10.020;2022-07-09T05:13:50;9.35;;;5.40;;
15002;SDS011;7597;53.590;10.020;2022-07-09T05:16:17;10.88;;;4.97;;
15002;SDS011;7597;53.590;10.020;2022-07-09T05:18:43;12.90;;;5.97;;
15002;SDS011;7597;53.590;10.020;2022-07-09T05:21:10;9.35;;;5.82;;
15002;SDS011;7597;53.590;10.020;2022-07-09T05:23:38;6.97;;;3.70;;
15002;SDS011;7597;53.590;10.020;2022-07-09T05:26:04;6.55;;;3.97;;
15002;SDS011;7597;53.590;10.020;2022-07-09T05:28:32;5.85;;;3.72;;
15002;SDS011;7597;53.590;10.020;2022-07-09T05:30:58;5.80;;;3.87;;
15002;SDS011;7597;53.590;10.020;2022-07-09T05:33:28;7.97;;;4.07;;
15002;SDS011;7597;53.590;10.020;2022-07-09T05:35:55;6.22;;;4.20;;
15002;SDS011;7597;53.590;10.020;2022-07-09T05:38:21;5.72;;;3.67;;
15002;SDS011;7597;53.590;10.020;2022-07-09T05:40:48;9.30;;;4.05;;
15002;SDS011;7597;53.590;10.020;2022-07-09T05:43:15;6.00;;;3.87;;
15002;SDS011;7597;53.590;10.020;2022-07-09T05:45:41;8.95;;;3.58;;
15002;SDS011;7597;53.590;10.020;2022-07-09T05:48:08;7.47;;;3.97;;
15002;SDS011;7597;53.590;10.020;2022-07-09T05:50:35;8.25;;;3.75;;
15002;SDS011;7597;53.590;10.020;2022-07-09T05:53:01;8.02;;;3.67;;
15002;SDS011;7597;53.590;10.020;2022-07-09T05:55:28;10.63;;;4.72;;
15002;SDS011;7597;53.590;10.020;2022-07-09T05:57:55;8.50;;;4.12;;
15002;SDS011;7597;53.590;10.020;2022-07-09T06:00:22;6.70;;;3.87;;
15002;SDS011;7597;53.590;10.020;2022-07-09T06:02:48;6.87;;;3.70;;
15002;SDS011;7597;53.590;10.020;2022-07-09T06:05:15;6.40;;;3.90;;
15002;SDS011;7597;53.590;10.020;2022-07-09T06:07:42;5.07;;;3.90;;
15002;SDS011;7597;53.590;10.020;2022-07-09T06:10:09;6.50;;;4.15;;
15002;SDS011;7597;53.590;10.020;2022-07-09T06:12:35;6.32;;;4.07;;
15002;SDS011;7597;53.590;10.020;2022-07-09T06:15:02;6.40;;;4.37;;
15002;SDS011;7597;53.590;10.020;2022-07-09T06:17:29;7.68;;;4.82;;
15002;SDS011;7597;53.590;10.020;2022-07-09T06:19:56;5.75;;;4.28;;
15002;SDS011;7597;53.590;10.020;2022-07-09T06:22:23;6.85;;;4.12;;
15002;SDS011;7597;53.590;10.020;2022-07-09T06:24:50;6.18;;;4.05;;
15002;SDS011;7597;53.590;10.020;2022-07-09T06:27:16;9.00;;;4.57;;
15002;SDS011;7597;53.590;10.020;2022-07-09T06:29:43;8.43;;;5.03;;
15002;SDS011;7597;53.590;10.020;2022-07-09T06:32:09;7.72;;;4.43;;
15002;SDS011;7597;53.590;10.020;2022-07-09T06:34:37;7.43;;;5.18;;
15002;SDS011;7597;53.590;10.020;2022-07-09T06:37:04;5.45;;;4.47;;
15002;SDS011;7597;53.590;10.020;2022-07-09T06:39:30;7.25;;;4.53;;
15002;SDS011;7597;53.590;10.020;2022-07-09T06:42:03;6.78;;;4.10;;
15002;SDS011;7597;53.590;10.020;2022-07-09T06:44:32;5.37;;;3.70;;
15002;SDS011;7597;53.590;10.020;2022-07-09T06:46:59;6.72;;;3.85;;
15002;SDS011;7597;53.590;10.020;2022-07-09T06:49:26;7.28;;;5.43;;
15002;SDS011;7597;53.590;10.020;2022-07-09T06:51:52;9.20;;;6.47;;
15002;SDS011;7597;53.590;10.020;2022-07-09T06:54:19;16.12;;;9.90;;
15002;SDS011;7597;53.590;10.020;2022-07-09T06:56:46;7.47;;;5.07;;
15002;SDS011;7597;53.590;10.020;2022-07-09T06:59:13;4.72;;;3.70;;
15002;SDS011;7597;53.590;10.020;2022-07-09T07:01:40;8.43;;;5.57;;
15002;SDS011;7597;53.590;10.020;2022-07-09T07:04:08;6.07;;;5.30;;
15002;SDS011;7597;53.590;10.020;2022-07-09T07:06:34;8.02;;;3.60;;
15002;SDS011;7597;53.590;10.020;2022-07-09T07:09:01;6.72;;;4.45;;
15002;SDS011;7597;53.590;10.020;2022-07-09T07:11:28;8.65;;;5.10;;
15002;SDS011;7597;53.590;10.020;2022-07-09T07:13:54;11.57;;;4.85;;
15002;SDS011;7597;53.590;10.020;2022-07-09T07:16:21;4.82;;;3.33;;
15002;SDS011;7597;53.590;10.020;2022-07-09T07:18:48;6.45;;;3.22;;
15002;SDS011;7597;53.590;10.020;2022-07-09T07:21:14;7.70;;;6.82;;
15002;SDS011;7597;53.590;10.020;2022-07-09T07:23:44;6.03;;;3.20;;
15002;SDS011;7597;53.590;10.020;2022-07-09T07:26:10;8.48;;;5.85;;
15002;SDS011;7597;53.590;10.020;2022-07-09T07:28:37;6.25;;;3.78;;
15002;SDS011;7597;53.590;10.020;2022-07-09T07:31:04;4.25;;;3.33;;
15002;SDS011;7597;53.590;10.020;2022-07-09T07:33:30;8.15;;;5.80;;
15002;SDS011;7597;53.590;10.020;2022-07-09T07:35:57;7.05;;;5.25;;
15002;SDS011;7597;53.590;10.020;2022-07-09T07:38:24;6.20;;;3.75;;
15002;SDS011;7597;53.590;10.020;2022-07-09T07:40:50;4.87;;;3.47;;
15002;SDS011;7597;53.590;10.020;2022-07-09T07:43:17;8.02;;;3.30;;
15002;SDS011;7597;53.590;10.020;2022-07-09T07:45:43;6.70;;;3.17;;
15002;SDS011;7597;53.590;10.020;2022-07-09T07:48:10;6.18;;;4.37;;
15002;SDS011;7597;53.590;10.020;2022-07-09T07:50:37;4.28;;;2.92;;
15002;SDS011;7597;53.590;10.020;2022-07-09T07:53:04;4.97;;;3.30;;
15002;SDS011;7597;53.590;10.020;2022-07-09T07:55:33;6.80;;;2.83;;
15002;SDS011;7597;53.590;10.020;2022-07-09T07:57:59;9.40;;;4.47;;
15002;SDS011;7597;53.590;10.020;2022-07-09T08:00:26;12.20;;;6.40;;
15002;SDS011;7597;53.590;10.020;2022-07-09T08:02:53;5.75;;;2.85;;
15002;SDS011;7597;53.590;10.020;2022-07-09T08:05:20;3.55;;;2.60;;
15002;SDS011;7597;53.590;10.020;2022-07-09T08:07:46;2.78;;;2.08;;
15002;SDS011;7597;53.590;10.020;2022-07-09T08:10:13;4.03;;;2.03;;
15002;SDS011;7597;53.590;10.020;2022-07-09T08:12:39;2.60;;;2.00;;
15002;SDS011;7597;53.590;10.020;2022-07-09T08:15:06;5.32;;;2.45;;
15002;SDS011;7597;53.590;10.020;2022-07-09T08:17:33;5.47;;;2.42;;
15002;SDS011;7597;53.590;10.020;2022-07-09T08:20:00;2.72;;;1.98;;
15002;SDS011;7597;53.590;10.020;2022-07-09T08:22:27;3.80;;;2.65;;
15002;SDS011;7597;53.590;10.020;2022-07-09T08:24:55;3.05;;;2.53;;
15002;SDS011;7597;53.590;10.020;2022-07-09T08:27:22;2.92;;;2.20;;
15002;SDS011;7597;53.590;10.020;2022-07-09T08:29:49;4.95;;;2.47;;
15002;SDS011;7597;53.590;10.020;2022-07-09T08:32:15;5.03;;;2.28;;
15002;SDS011;7597;53.590;10.020;2022-07-09T08:34:42;2.60;;;2.28;;
15002;SDS011;7597;53.590;10.020;2022-07-09T08:37:09;2.47;;;2.00;;
15002;SDS011;7597;53.590;10.020;2022-07-09T08:39:36;3.72;;;2.22;;
15002;SDS011;7597;53.590;10.020;2022-07-09T08:42:03;3.47;;;2.10;;
15002;SDS011;7597;53.590;10.020;2022-07-09T08:44:29;4.75;;;2.05;;
15002;SDS011;7597;53.590;10.020;2022-07-09T08:46:56;2.45;;;1.80;;
15002;SDS011;7597;53.590;10.020;2022-07-09T08:49:22;4.30;;;2.03;;
15002;SDS011;7597;53.590;10.020;2022-07-09T08:51:49;3.60;;;1.77;;
15002;SDS011;7597;53.590;10.020;2022-07-09T08:54:16;2.85;;;1.60;;
15002;SDS011;7597;53.590;10.020;2022-07-09T08:56:42;5.28;;;2.20;;
15002;SDS011;7597;53.590;10.020;2022-07-09T08:59:09;4.70;;;2.08;;
15002;SDS011;7597;53.590;10.020;2022-07-09T09:01:36;3.47;;;1.70;;
15002;SDS011;7597;53.590;10.020;2022-07-09T09:04:03;3.95;;;1.90;;
15002;SDS011;7597;53.590;10.020;2022-07-09T09:06:35;2.62;;;1.65;;
15002;SDS011;7597;53.590;10.020;2022-07-09T09:08:57;2.97;;;1.80;;
15002;SDS011;7597;53.590;10.020;2022-07-09T09:11:25;2.47;;;1.50;;
15002;SDS011;7597;53.590;10.020;2022-07-09T09:13:51;3.50;;;1.83;;
15002;SDS011;7597;53.590;10.020;2022-07-09T09:16:18;1.95;;;1.62;;
15002;SDS011;7597;53.590;10.020;2022-07-09T09:18:46;9.70;;;8.60;;
15002;SDS011;7597;53.590;10.020;2022-07-09T09:21:13;2.72;;;1.65;;
15002;SDS011;7597;53.590;10.020;2022-07-09T09:23:41;2.65;;;2.10;;
15002;SDS011;7597;53.590;10.020;2022-07-09T09:26:12;4.68;;;2.62;;
15002;SDS011;7597;53.590;10.020;2022-07-09T09:28:48;3.72;;;1.55;;
15002;SDS011;7597;53.590;10.020;2022-07-09T09:31:18;2.62;;;1.20;;
15002;SDS011;7597;53.590;10.020;2022-07-09T09:33:48;4.12;;;1.80;;
15002;SDS011;7597;53.590;10.020;2022-07-09T09:38:52;2.65;;;1.37;;
15002;SDS011;7597;53.590;10.020;2022-07-09T09:41:21;2.92;;;1.60;;
15002;SDS011;7597;53.590;10.020;2022-07-09T09:43:47;3.87;;;1.70;;
15002;SDS011;7597;53.590;10.020;2022-07-09T09:46:14;2.87;;;1.60;;
15002;SDS011;7597;53.590;10.020;2022-07-09T09:48:41;2.17;;;1.62;;
15002;SDS011;7597;53.590;10.020;2022-07-09T09:51:07;2.40;;;1.60;;
15002;SDS011;7597;53.590;10.020;2022-07-09T09:53:34;1.75;;;1.45;;
15002;SDS011;7597;53.590;10.020;2022-07-09T09:56:01;2.15;;;1.50;;
15002;SDS011;7597;53.590;10.020;2022-07-09T09:58:28;1.73;;;1.42;;
15002;SDS011;7597;53.590;10.020;2022-07-09T10:00:55;1.87;;;1.48;;
15002;SDS011;7597;53.590;10.020;2022-07-09T10:03:21;4.80;;;1.95;;
15002;SDS011;7597;53.590;10.020;2022-07-09T10:05:48;1.80;;;1.60;;
15002;SDS011;7597;53.590;10.020;2022-07-09T10:08:15;2.58;;;1.50;;
15002;SDS011;7597;53.590;10.020;2022-07-09T10:10:49;1.35;;;1.30;;
15002;SDS011;7597;53.590;10.020;2022-07-09T10:13:18;2.30;;;1.58;;
15002;SDS011;7597;53.590;10.020;2022-07-09T10:15:35;2.67;;;1.50;;
15002;SDS011;7597;53.590;10.020;2022-07-09T10:18:09;2.90;;;1.40;;
15002;SDS011;7597;53.590;10.020;2022-07-09T10:20:28;2.60;;;1.40;;
15002;SDS011;7597;53.590;10.020;2022-07-09T10:22:54;2.08;;;1.30;;
15002;SDS011;7597;53.590;10.020;2022-07-09T10:25:23;2.12;;;1.48;;
15002;SDS011;7597;53.590;10.020;2022-07-09T10:27:49;2.58;;;1.40;;
15002;SDS011;7597;53.590;10.020;2022-07-09T10:33:00;2.85;;;1.60;;
15002;SDS011;7597;53.590;10.020;2022-07-09T10:35:26;3.45;;;1.52;;
15002;SDS011;7597;53.590;10.020;2022-07-09T10:37:52;1.42;;;1.33;;
15002;SDS011;7597;53.590;10.020;2022-07-09T10:40:15;4.30;;;2.00;;
15002;SDS011;7597;53.590;10.020;2022-07-09T10:42:43;3.83;;;1.77;;
15002;SDS011;7597;53.590;10.020;2022-07-09T10:45:20;6.72;;;6.10;;
15002;SDS011;7597;53.590;10.020;2022-07-09T10:47:49;2.35;;;2.00;;
15002;SDS011;7597;53.590;10.020;2022-07-09T10:50:16;7.62;;;6.82;;
15002;SDS011;7597;53.590;10.020;2022-07-09T10:52:42;3.03;;;1.58;;
15002;SDS011;7597;53.590;10.020;2022-07-09T10:55:09;3.15;;;2.00;;
15002;SDS011;7597;53.590;10.020;2022-07-09T10:57:36;3.75;;;1.85;;
15002;SDS011;7597;53.590;10.020;2022-07-09T11:00:03;2.60;;;1.62;;
15002;SDS011;7597;53.590;10.020;2022-07-09T11:02:30;3.58;;;1.77;;
15002;SDS011;7597;53.590;10.020;2022-07-09T11:04:56;1.45;;;1.35;;
15002;SDS011;7597;53.590;10.020;2022-07-09T11:07:23;2.72;;;1.55;;
15002;SDS011;7597;53.590;10.020;2022-07-09T11:09:51;1.37;;;1.33;;
15002;SDS011;7597;53.590;10.020;2022-07-09T11:12:17;2.30;;;1.42;;
15002;SDS011;7597;53.590;10.020;2022-07-09T11:14:44;2.87;;;1.50;;
15002;SDS011;7597;53.590;10.020;2022-07-09T11:17:19;3.45;;;1.45;;
15002;SDS011;7597;53.590;10.020;2022-07-09T11:19:46;5.25;;;1.40;;
15002;SDS011;7597;53.590;10.020;2022-07-09T11:22:12;2.50;;;1.73;;
15002;SDS011;7597;53.590;10.020;2022-07-09T11:24:39;2.37;;;1.50;;
15002;SDS011;7597;53.590;10.020;2022-07-09T11:27:06;3.25;;;1.60;;
15002;SDS011;7597;53.590;10.020;2022-07-09T11:29:33;2.37;;;1.23;;
15002;SDS011;7597;53.590;10.020;2022-07-09T11:31:59;1.80;;;1.48;;
15002;SDS011;7597;53.590;10.020;2022-07-09T11:34:26;1.37;;;1.02;;
15002;SDS011;7597;53.590;10.020;2022-07-09T11:36:54;2.70;;;1.20;;
15002;SDS011;7597;53.590;10.020;2022-07-09T11:39:22;1.50;;;1.33;;
15002;SDS011;7597;53.590;10.020;2022-07-09T11:41:48;1.77;;;1.67;;
15002;SDS011;7597;53.590;10.020;2022-07-09T11:44:21;3.30;;;1.50;;
15002;SDS011;7597;53.590;10.020;2022-07-09T11:49:31;2.03;;;1.20;;
15002;SDS011;7597;53.590;10.020;2022-07-09T11:51:51;1.75;;;1.50;;
15002;SDS011;7597;53.590;10.020;2022-07-09T11:54:25;2.58;;;1.40;;
15002;SDS011;7597;53.590;10.020;2022-07-09T11:56:45;1.77;;;1.40;;
15002;SDS011;7597;53.590;10.020;2022-07-09T11:59:11;2.50;;;1.23;;
15002;SDS011;7597;53.590;10.020;2022-07-09T12:01:38;1.37;;;1.02;;
15002;SDS011;7597;53.590;10.020;2022-07-09T12:04:05;1.30;;;1.20;;
15002;SDS011;7597;53.590;10.020;2022-07-09T12:06:32;1.15;;;1.00;;
15002;SDS011;7597;53.590;10.020;2022-07-09T12:08:59;1.77;;;1.10;;
15002;SDS011;7597;53.590;10.020;2022-07-09T12:11:27;3.30;;;1.55;;
15002;SDS011;7597;53.590;10.020;2022-07-09T12:13:53;2.95;;;1.42;;
15002;SDS011;7597;53.590;10.020;2022-07-09T12:16:20;1.35;;;1.17;;
15002;SDS011;7597;53.590;10.020;2022-07-09T12:18:46;4.12;;;1.42;;
15002;SDS011;7597;53.590;10.020;2022-07-09T12:21:13;2.35;;;1.45;;
15002;SDS011;7597;53.590;10.020;2022-07-09T12:23:40;3.62;;;1.45;;
15002;SDS011;7597;53.590;10.020;2022-07-09T12:26:06;4.00;;;1.48;;
15002;SDS011;7597;53.590;10.020;2022-07-09T12:28:33;2.70;;;1.33;;
15002;SDS011;7597;53.590;10.020;2022-07-09T12:31:00;5.20;;;1.80;;
15002;SDS011;7597;53.590;10.020;2022-07-09T12:33:26;2.30;;;1.48;;
15002;SDS011;7597;53.590;10.020;2022-07-09T12:35:53;3.60;;;1.50;;
15002;SDS011;7597;53.590;10.020;2022-07-09T12:38:19;2.65;;;1.30;;
15002;SDS011;7597;53.590;10.020;2022-07-09T12:40:46;1.62;;;1.40;;
15002;SDS011;7597;53.590;10.020;2022-07-09T12:43:13;6.55;;;3.50;;
15002;SDS011;7597;53.590;10.020;2022-07-09T12:45:39;3.60;;;1.80;;
15002;SDS011;7597;53.590;10.020;2022-07-09T12:48:06;3.67;;;1.70;;
15002;SDS011;7597;53.590;10.020;2022-07-09T12:50:33;3.25;;;1.35;;
15002;SDS011;7597;53.590;10.020;2022-07-09T12:53:01;2.78;;;1.70;;
15002;SDS011;7597;53.590;10.020;2022-07-09T12:55:28;3.92;;;1.85;;
15002;SDS011;7597;53.590;10.020;2022-07-09T12:57:54;4.18;;;1.52;;
15002;SDS011;7597;53.590;10.020;2022-07-09T13:00:22;3.60;;;1.90;;
15002;SDS011;7597;53.590;10.020;2022-07-09T13:02:48;4.32;;;1.62;;
15002;SDS011;7597;53.590;10.020;2022-07-09T13:05:16;2.30;;;1.37;;
15002;SDS011;7597;53.590;10.020;2022-07-09T13:07:42;4.40;;;1.50;;
15002;SDS011;7597;53.590;10.020;2022-07-09T13:10:09;4.45;;;1.83;;
15002;SDS011;7597;53.590;10.020;2022-07-09T13:12:36;4.30;;;1.50;;
15002;SDS011;7597;53.590;10.020;2022-07-09T13:15:02;2.12;;;1.30;;
15002;SDS011;7597;53.590;10.020;2022-07-09T13:17:30;3.60;;;1.70;;
15002;SDS011;7597;53.590;10.020;2022-07-09T13:19:56;2.80;;;1.17;;
15002;SDS011;7597;53.590;10.020;2022-07-09T13:22:23;5.00;;;1.67;;
15002;SDS011;7597;53.590;10.020;2022-07-09T13:24:50;2.12;;;1.35;;
15002;SDS011;7597;53.590;10.020;2022-07-09T13:27:16;4.28;;;1.70;;
15002;SDS011;7597;53.590;10.020;2022-07-09T13:29:43;6.35;;;1.50;;
15002;SDS011;7597;53.590;10.020;2022-07-09T13:32:10;4.20;;;1.33;;
15002;SDS011;7597;53.590;10.020;2022-07-09T13:34:37;3.00;;;1.37;;
15002;SDS011;7597;53.590;10.020;2022-07-09T13:37:03;2.95;;;1.40;;
15002;SDS011;7597;53.590;10.020;2022-07-09T13:39:30;2.03;;;1.30;;
15002;SDS011;7597;53.590;10.020;2022-07-09T13:41:56;2.40;;;1.35;;
15002;SDS011;7597;53.590;10.020;2022-07-09T13:44:23;2.55;;;1.10;;
15002;SDS011;7597;53.590;10.020;2022-07-09T13:46:50;4.00;;;1.50;;
15002;SDS011;7597;53.590;10.020;2022-07-09T13:49:17;1.87;;;1.37;;
15002;SDS011;7597;53.590;10.020;2022-07-09T13:51:43;3.70;;;1.52;;
15002;SDS011;7597;53.590;10.020;2022-07-09T13:54:10;3.30;;;1.70;;
15002;SDS011;7597;53.590;10.020;2022-07-09T13:56:37;5.15;;;1.40;;
15002;SDS011;7597;53.590;10.020;2022-07-09T13:59:03;4.12;;;1.75;;
15002;SDS011;7597;53.590;10.020;2022-07-09T14:01:30;3.60;;;1.35;;
15002;SDS011;7597;53.590;10.020;2022-07-09T14:03:57;3.30;;;1.30;;
15002;SDS011;7597;53.590;10.020;2022-07-09T14:06:24;3.28;;;1.45;;
15002;SDS011;7597;53.590;10.020;2022-07-09T14:08:50;3.55;;;1.73;;
15002;SDS011;7597;53.590;10.020;2022-07-09T14:11:17;2.50;;;1.45;;
15002;SDS011;7597;53.590;10.020;2022-07-09T14:13:43;4.37;;;1.70;;
15002;SDS011;7597;53.590;10.020;2022-07-09T14:16:10;3.95;;;1.62;;
15002;SDS011;7597;53.590;10.020;2022-07-09T14:18:37;3.70;;;1.85;;
15002;SDS011;7597;53.590;10.020;2022-07-09T14:21:03;2.30;;;1.52;;
15002;SDS011;7597;53.590;10.020;2022-07-09T14:23:30;3.12;;;1.58;;
15002;SDS011;7597;53.590;10.020;2022-07-09T14:25:57;2.80;;;1.48;;
15002;SDS011;7597;53.590;10.020;2022-07-09T14:28:24;3.10;;;1.40;;
15002;SDS011;7597;53.590;10.020;2022-07-09T14:30:51;3.33;;;1.50;;
15002;SDS011;7597;53.590;10.020;2022-07-09T14:33:18;4.00;;;1.48;;
15002;SDS011;7597;53.590;10.020;2022-07-09T14:35:44;3.67;;;1.80;;
15002;SDS011;7597;53.590;10.020;2022-07-09T14:38:12;4.70;;;1.52;;
15002;SDS011;7597;53.590;10.020;2022-07-09T14:40:39;5.03;;;1.23;;
15002;SDS011;7597;53.590;10.020;2022-07-09T14:43:05;5.10;;;2.22;;
15002;SDS011;7597;53.590;10.020;2022-07-09T14:45:32;5.82;;;1.58;;
15002;SDS011;7597;53.590;10.020;2022-07-09T14:48:00;4.35;;;1.60;;